Time;durP1;ratioP1;P1;durP2;ratioP2;P2;SDS_P1;SDS_P2;PMS_P1;PMS_P2;Temp;Humidity;BMP_temperature;BMP_pressure;BME280_temperature;BME280_humidity;BME280_pressure;Samples;Min_cycle;Max_cycle;Signal;HPM_P1;HPM_P2
2022/03/22 00:01:51;;;;;;;51.73;30.27;;;6.60;99.90;;;;;;4962569;28;39817;-77
2022/03/22 00:04:18;;;;;;;51.17;31.37;;;6.60;99.90;;;;;;4950511;28;37922;-77
2022/03/22 00:06:44;;;;;;;48.93;29.00;;;6.70;99.90;;;;;;4965142;28;38471;-77
2022/03/22 00:09:13;;;;;;;52.67;32.80;;;6.60;99.90;;;;;;4972785;28;37528;-77
2022/03/22 00:11:39;;;;;;;49.07;30.87;;;6.60;99.90;;;;;;4950965;28;37669;-77
2022/03/22 00:14:08;;;;;;;54.33;31.87;;;6.60;99.90;;;;;;4966829;28;36311;-77
2022/03/22 00:16:37;;;;;;;53.87;31.33;;;6.60;99.90;;;;;;4964072;28;38936;-77
2022/03/22 00:19:03;;;;;;;49.90;31.43;;;6.50;99.90;;;;;;4949427;28;39405;-77
2022/03/22 00:21:34;;;;;;;54.50;31.63;;;6.60;99.90;;;;;;4954795;28;37920;-77
2022/03/22 00:24:03;;;;;;;51.70;32.20;;;6.50;99.90;;;;;;4958502;28;38054;-76
2022/03/22 00:26:30;;;;;;;52.17;32.03;;;6.50;99.90;;;;;;4962773;28;48673;-77
2022/03/22 00:28:57;;;;;;;50.70;31.53;;;6.50;99.90;;;;;;4971636;28;37277;-77
2022/03/22 00:31:26;;;;;;;54.37;34.00;;;6.40;99.90;;;;;;4958146;28;38266;-77
2022/03/22 00:33:55;;;;;;;52.93;32.37;;;6.40;99.90;;;;;;4971406;28;37557;-77
2022/03/22 00:36:22;;;;;;;59.07;34.63;;;6.30;99.90;;;;;;4960123;28;38416;-77
2022/03/22 00:38:49;;;;;;;58.07;34.27;;;6.30;99.90;;;;;;4961788;28;39575;-77
2022/03/22 00:41:16;;;;;;;53.37;33.27;;;6.30;99.90;;;;;;4957979;28;37721;-77
2022/03/22 00:43:43;;;;;;;50.87;33.17;;;6.20;99.90;;;;;;4961657;28;37670;-77
2022/03/22 00:46:10;;;;;;;59.80;35.63;;;6.30;99.90;;;;;;4961096;28;38644;-77
2022/03/22 00:48:36;;;;;;;57.77;35.33;;;6.20;99.90;;;;;;4961021;28;38353;-77
2022/03/22 00:51:02;;;;;;;57.03;36.43;;;6.20;99.90;;;;;;4974787;28;37570;-77
2022/03/22 00:53:28;;;;;;;59.90;37.30;;;6.20;99.90;;;;;;4962073;28;38165;-77
2022/03/22 00:55:54;;;;;;;61.20;35.43;;;6.20;99.90;;;;;;4963008;28;37837;-77
2022/03/22 00:58:20;;;;;;;61.77;37.10;;;6.30;99.90;;;;;;4983032;28;38021;-77
2022/03/22 01:00:48;;;;;;;62.87;35.50;;;6.30;99.90;;;;;;4969743;28;38905;-77
2022/03/22 01:03:19;;;;;;;51.13;33.80;;;6.20;99.90;;;;;;4970530;28;36353;-78
2022/03/22 01:05:50;;;;;;;61.13;38.33;;;6.20;99.90;;;;;;4983335;28;39289;-77
2022/03/22 01:08:19;;;;;;;66.43;36.77;;;6.20;99.90;;;;;;4981479;28;38805;-77
2022/03/22 01:10:52;;;;;;;62.73;37.27;;;6.20;99.90;;;;;;4968586;28;38301;-77
2022/03/22 01:13:22;;;;;;;61.05;36.00;;;6.10;99.90;;;;;;4983711;28;38288;-76
2022/03/22 01:15:49;;;;;;;56.87;33.73;;;6.10;99.90;;;;;;4986375;28;39486;-76
2022/03/22 01:18:16;;;;;;;64.77;38.73;;;6.10;99.90;;;;;;4987897;28;38403;-77
2022/03/22 01:20:46;;;;;;;64.50;38.53;;;6.10;99.90;;;;;;4968217;28;36868;-77
2022/03/22 01:23:15;;;;;;;63.43;36.43;;;6.10;99.90;;;;;;4973946;28;38407;-77
2022/03/22 01:25:43;;;;;;;62.17;36.77;;;6.10;99.90;;;;;;4984358;28;38869;-77
2022/03/22 01:28:13;;;;;;;63.00;37.27;;;6.10;99.90;;;;;;4976019;28;38334;-77
2022/03/22 01:30:43;;;;;;;66.90;38.53;;;6.10;99.90;;;;;;4980879;28;37059;-77
2022/03/22 01:33:12;;;;;;;61.90;37.20;;;6.10;99.90;;;;;;4981952;28;37242;-76
2022/03/22 01:35:42;;;;;;;65.90;37.00;;;6.10;99.90;;;;;;4972973;28;39010;-77
2022/03/22 01:38:11;;;;;;;62.37;38.03;;;6.10;99.90;;;;;;4983081;28;38480;-77
2022/03/22 01:40:44;;;;;;;64.47;38.33;;;6.20;99.90;;;;;;4983470;28;36133;-76
2022/03/22 01:43:16;;;;;;;59.60;37.87;;;6.30;99.90;;;;;;4961952;28;36438;-77
2022/03/22 01:45:51;;;;;;;62.05;37.42;;;6.30;99.90;;;;;;4972239;28;38017;-75
2022/03/22 01:48:20;;;;;;;66.17;39.43;;;6.30;99.90;;;;;;4980938;28;37370;-77
2022/03/22 01:50:49;;;;;;;67.13;39.30;;;6.40;99.90;;;;;;4981934;28;39077;-77
2022/03/22 01:53:16;;;;;;;62.27;37.67;;;6.40;99.90;;;;;;4978733;28;37268;-77
2022/03/22 01:55:45;;;;;;;64.17;37.63;;;6.50;99.90;;;;;;4975087;28;38016;-77
2022/03/22 01:58:13;;;;;;;61.63;38.93;;;6.50;99.90;;;;;;4974199;28;39473;-77
2022/03/22 02:00:40;;;;;;;63.40;39.23;;;6.50;99.90;;;;;;4982033;28;38290;-76
2022/03/22 02:05:58;;;;;;;66.67;40.03;;;6.50;99.90;;;;;;4983054;28;39454;-77
2022/03/22 02:08:30;;;;;;;67.53;39.53;;;6.50;99.90;;;;;;4977047;28;37344;-77
2022/03/22 02:11:00;;;;;;;73.28;42.13;;;6.50;99.90;;;;;;4970844;28;39636;-77
2022/03/22 02:13:27;;;;;;;70.47;40.27;;;6.50;99.90;;;;;;4979441;28;37325;-77
2022/03/22 02:15:57;;;;;;;69.73;40.87;;;6.50;99.90;;;;;;4981685;28;38881;-77
2022/03/22 02:18:25;;;;;;;65.67;41.67;;;6.50;99.90;;;;;;4956976;28;39916;-77
2022/03/22 02:20:51;;;;;;;67.10;41.20;;;6.50;99.90;;;;;;4979053;28;38328;-77
2022/03/22 02:23:40;;;;;;;76.10;45.63;;;6.50;99.90;;;;;;4984189;28;36378;-76
2022/03/22 02:26:06;;;;;;;70.03;41.93;;;6.50;99.90;;;;;;4980367;28;38803;-76
2022/03/22 02:28:33;;;;;;;68.13;40.40;;;6.50;99.90;;;;;;4985155;28;38047;-76
2022/03/22 02:30:59;;;;;;;66.73;39.10;;;6.50;99.90;;;;;;4982490;28;38154;-76
2022/03/22 02:33:25;;;;;;;63.90;39.00;;;6.40;99.90;;;;;;4967295;28;37334;-77
2022/03/22 02:35:51;;;;;;;71.10;41.63;;;6.40;99.90;;;;;;4957121;28;38860;-77
2022/03/22 02:38:20;;;;;;;66.67;40.73;;;6.50;99.90;;;;;;4951058;28;38013;-77
2022/03/22 02:40:49;;;;;;;66.60;42.20;;;6.50;99.90;;;;;;4978480;28;37875;-77
2022/03/22 02:43:18;;;;;;;66.07;41.63;;;6.50;99.90;;;;;;4976871;28;40131;-77
2022/03/22 02:45:44;;;;;;;70.43;43.40;;;6.50;99.90;;;;;;4985046;28;38739;-76
2022/03/22 02:48:11;;;;;;;69.67;44.70;;;6.60;99.90;;;;;;4983559;28;39254;-76
2022/03/22 02:50:37;;;;;;;69.67;41.83;;;6.70;99.90;;;;;;4974239;28;36362;-76
2022/03/22 02:53:03;;;;;;;73.17;45.00;;;6.90;99.90;;;;;;4965457;28;37981;-77
2022/03/22 02:55:29;;;;;;;75.50;44.30;;;7.00;99.90;;;;;;4959566;28;40679;-77
2022/03/22 02:57:55;;;;;;;78.27;45.63;;;7.00;99.90;;;;;;4975813;28;38357;-77
2022/03/22 03:00:23;;;;;;;77.43;46.67;;;7.00;99.90;;;;;;4983224;28;38481;-77
2022/03/22 03:02:51;;;;;;;73.27;45.30;;;7.00;99.90;;;;;;4984457;28;38394;-77
2022/03/22 03:05:22;;;;;;;66.37;41.27;;;7.00;99.90;;;;;;4983607;28;38940;-77
2022/03/22 03:07:50;;;;;;;69.13;41.80;;;7.10;99.90;;;;;;4981176;28;36998;-77
2022/03/22 03:10:16;;;;;;;72.40;42.77;;;7.10;99.90;;;;;;4984245;28;39148;-77
2022/03/22 03:12:46;;;;;;;73.10;41.90;;;7.20;99.90;;;;;;4981545;28;35965;-77
2022/03/22 03:15:13;;;;;;;68.47;41.77;;;7.20;99.90;;;;;;4966360;28;37817;-77
2022/03/22 03:17:39;;;;;;;69.90;44.07;;;7.20;99.90;;;;;;4981104;28;40144;-77
2022/03/22 03:20:07;;;;;;;70.27;43.07;;;7.20;99.90;;;;;;4967123;28;40750;-77
2022/03/22 03:22:34;;;;;;;71.70;43.90;;;7.30;99.90;;;;;;4980436;28;37418;-77
2022/03/22 03:25:00;;;;;;;77.53;45.57;;;7.30;99.90;;;;;;4955092;28;39608;-77
2022/03/22 03:27:26;;;;;;;69.80;43.50;;;7.30;99.90;;;;;;4970891;28;42081;-77
2022/03/22 03:29:52;;;;;;;69.40;42.10;;;7.30;99.90;;;;;;4977799;28;38498;-77
2022/03/22 03:32:18;;;;;;;70.03;44.30;;;7.30;99.90;;;;;;4977834;28;37544;-77
2022/03/22 03:34:44;;;;;;;67.33;41.93;;;7.30;99.90;;;;;;4978734;28;40549;-77
2022/03/22 03:37:10;;;;;;;74.20;46.47;;;7.20;99.90;;;;;;4983812;28;38862;-77
2022/03/22 03:39:40;;;;;;;69.93;44.50;;;7.20;99.90;;;;;;4966402;28;38102;-77
2022/03/22 03:42:07;;;;;;;76.50;46.50;;;7.20;99.90;;;;;;4980647;28;39064;-77
2022/03/22 03:47:22;;;;;;;77.40;47.70;;;7.20;99.90;;;;;;4979427;28;38632;-77
2022/03/22 03:49:54;;;;;;;72.70;43.80;;;7.20;99.90;;;;;;4980492;28;39546;-77
2022/03/22 03:52:22;;;;;;;74.23;43.63;;;7.20;99.90;;;;;;4978490;28;36895;-77
2022/03/22 03:54:49;;;;;;;64.03;40.70;;;7.10;99.90;;;;;;4981454;28;38707;-77
2022/03/22 03:57:15;;;;;;;69.20;44.13;;;7.10;99.90;;;;;;4977801;28;38375;-77
2022/03/22 03:59:42;;;;;;;71.10;44.67;;;7.10;99.90;;;;;;4978931;28;37651;-77
2022/03/22 04:02:09;;;;;;;76.37;44.73;;;7.00;99.90;;;;;;4982489;28;38131;-77
2022/03/22 04:04:39;;;;;;;73.13;45.50;;;7.00;99.90;;;;;;4977333;28;39041;-77
2022/03/22 04:07:09;;;;;;;65.57;42.53;;;7.00;99.90;;;;;;4975428;28;39265;-77
2022/03/22 04:09:36;;;;;;;77.63;45.60;;;6.90;99.90;;;;;;4975954;28;39285;-77
2022/03/22 04:12:03;;;;;;;76.07;44.17;;;6.90;99.90;;;;;;4974780;28;37863;-77
2022/03/22 04:14:29;;;;;;;77.00;45.13;;;6.80;99.90;;;;;;4985792;28;40068;-77
2022/03/22 04:16:56;;;;;;;73.27;45.77;;;6.70;99.90;;;;;;4982860;28;38888;-77
2022/03/22 04:19:26;;;;;;;74.27;43.07;;;6.60;99.90;;;;;;4991387;28;38312;-77
2022/03/22 04:21:52;;;;;;;74.63;47.23;;;6.50;99.90;;;;;;4987849;28;35559;-77
2022/03/22 04:24:19;;;;;;;74.90;46.00;;;6.50;99.90;;;;;;4974341;28;40490;-76
2022/03/22 04:26:49;;;;;;;73.07;45.73;;;6.40;99.90;;;;;;4983149;28;39565;-77
2022/03/22 04:34:52;;;;;;;74.30;45.63;;;6.30;99.90;;;;;;4972780;28;39529;-77
2022/03/22 04:37:21;;;;;;;85.87;50.10;;;6.30;99.90;;;;;;4971315;28;38219;-78
2022/03/22 04:39:47;;;;;;;80.77;48.17;;;6.20;99.90;;;;;;4982416;28;39548;-77
2022/03/22 04:42:14;;;;;;;78.67;46.67;;;6.20;99.90;;;;;;4970417;28;38411;-77
2022/03/22 04:44:41;;;;;;;84.47;49.83;;;6.10;99.90;;;;;;4981108;28;40038;-77
2022/03/22 04:47:08;;;;;;;79.97;46.87;;;6.10;99.90;;;;;;4982708;28;39118;-76
2022/03/22 04:49:35;;;;;;;76.80;47.27;;;6.00;99.90;;;;;;4963813;28;39034;-77
2022/03/22 04:57:30;;;;;;;74.93;45.63;;;5.70;99.90;;;;;;4981498;28;48401;-77
2022/03/22 04:59:57;;;;;;;82.23;48.37;;;5.70;99.90;;;;;;4985933;28;39245;-77
2022/03/22 05:02:23;;;;;;;80.67;47.23;;;5.60;99.90;;;;;;4984661;28;37628;-77
2022/03/22 05:04:49;;;;;;;88.70;49.60;;;5.60;99.90;;;;;;4982132;28;39379;-77
2022/03/22 05:07:15;;;;;;;78.67;46.93;;;5.60;99.90;;;;;;4981054;28;38457;-77
2022/03/22 05:09:44;;;;;;;75.20;47.33;;;5.60;99.90;;;;;;4965187;28;38834;-77
2022/03/22 05:12:13;;;;;;;81.17;49.27;;;5.50;99.90;;;;;;4968940;28;38905;-77
2022/03/22 05:14:42;;;;;;;82.40;49.17;;;5.50;99.90;;;;;;4981338;28;39360;-77
2022/03/22 05:17:11;;;;;;;84.67;49.50;;;5.50;99.90;;;;;;4972042;28;38869;-77
2022/03/22 05:19:40;;;;;;;84.30;48.60;;;5.40;99.90;;;;;;4985380;28;38153;-77
2022/03/22 05:22:06;;;;;;;87.87;47.70;;;5.30;99.90;;;;;;4969805;28;37378;-77
2022/03/22 05:24:33;;;;;;;89.10;50.40;;;5.30;99.90;;;;;;4980879;28;39843;-76
2022/03/22 05:27:02;;;;;;;87.80;50.90;;;5.20;99.90;;;;;;4970466;28;37456;-77
2022/03/22 05:29:32;;;;;;;81.20;47.17;;;5.20;99.90;;;;;;4973860;28;47726;-77
2022/03/22 05:31:58;;;;;;;85.17;49.30;;;5.10;99.90;;;;;;4986565;28;38322;-77
2022/03/22 05:34:27;;;;;;;84.60;49.63;;;5.10;99.90;;;;;;4967568;28;39430;-76
2022/03/22 05:36:54;;;;;;;92.97;52.37;;;5.00;99.90;;;;;;4962539;28;39178;-77
2022/03/22 05:39:20;;;;;;;81.77;48.90;;;5.00;99.90;;;;;;4979042;28;38141;-77
2022/03/22 05:41:46;;;;;;;87.67;50.97;;;5.00;99.90;;;;;;4965174;28;36967;-77
2022/03/22 05:44:15;;;;;;;86.87;50.13;;;5.00;99.90;;;;;;4980347;28;37468;-77
2022/03/22 05:46:41;;;;;;;87.83;50.13;;;4.90;99.90;;;;;;4977108;28;38651;-76
2022/03/22 05:49:13;;;;;;;87.30;51.30;;;4.80;99.90;;;;;;4982426;28;37620;-76
2022/03/22 05:51:39;;;;;;;82.80;50.03;;;4.80;99.90;;;;;;4979661;28;38951;-77
2022/03/22 05:54:06;;;;;;;85.70;49.07;;;4.80;99.90;;;;;;4946652;28;37302;-76
2022/03/22 05:56:32;;;;;;;95.50;52.87;;;4.80;99.90;;;;;;4964902;28;37389;-76
2022/03/22 05:58:59;;;;;;;88.47;51.30;;;4.90;99.90;;;;;;4971809;28;37721;-77
2022/03/22 06:01:31;;;;;;;84.70;49.83;;;4.80;99.90;;;;;;4958886;28;37276;-76
2022/03/22 06:03:58;;;;;;;86.13;51.43;;;4.80;99.90;;;;;;4962818;28;37797;-77
2022/03/22 06:06:24;;;;;;;96.10;51.70;;;4.80;99.90;;;;;;4964013;28;39131;-77
2022/03/22 06:08:51;;;;;;;89.80;49.27;;;4.80;99.90;;;;;;4955748;28;38297;-77
2022/03/22 06:11:18;;;;;;;89.77;53.37;;;4.80;99.90;;;;;;4962360;28;37559;-77
2022/03/22 06:13:44;;;;;;;91.03;51.53;;;4.80;99.90;;;;;;4959223;28;38876;-77
2022/03/22 06:16:11;;;;;;;96.20;50.50;;;4.80;99.90;;;;;;4968800;28;37512;-76
2022/03/22 06:18:37;;;;;;;91.47;52.43;;;4.80;99.90;;;;;;4965650;28;37732;-76
2022/03/22 06:21:03;;;;;;;89.30;51.70;;;4.80;99.90;;;;;;4980547;28;36325;-76
2022/03/22 06:23:29;;;;;;;81.43;49.03;;;4.90;99.90;;;;;;4964293;28;40143;-76
2022/03/22 06:25:55;;;;;;;109.07;55.83;;;4.90;99.90;;;;;;4976905;28;37088;-76
2022/03/22 06:28:21;;;;;;;96.00;56.33;;;5.00;99.90;;;;;;4955521;28;38282;-76
2022/03/22 06:30:48;;;;;;;91.53;52.03;;;5.00;99.90;;;;;;4962852;28;37939;-76
2022/03/22 06:33:17;;;;;;;97.57;51.50;;;5.00;99.90;;;;;;4958597;28;39509;-76
2022/03/22 06:35:44;;;;;;;103.13;57.27;;;5.10;99.90;;;;;;4963304;28;39915;-76
2022/03/22 06:38:11;;;;;;;106.20;56.30;;;5.10;99.90;;;;;;4959303;28;38273;-76
2022/03/22 06:40:39;;;;;;;103.97;57.70;;;5.20;99.90;;;;;;4963114;28;38101;-76
2022/03/22 06:43:11;;;;;;;90.87;52.90;;;5.30;99.90;;;;;;4962128;28;38754;-77
2022/03/22 06:45:38;;;;;;;;;;;5.30;99.90;;;;;;4983436;28;38796;-76
2022/03/22 06:48:09;;;;;;;91.87;52.23;;;5.40;99.90;;;;;;4961887;28;38695;-76
2022/03/22 06:50:36;;;;;;;98.13;55.33;;;5.60;99.90;;;;;;4963270;28;36632;-79
2022/03/22 06:53:04;;;;;;;101.50;57.17;;;5.70;99.90;;;;;;4963633;28;37021;-79
2022/03/22 06:55:31;;;;;;;93.63;54.40;;;5.80;99.90;;;;;;4966431;28;38790;-79
2022/03/22 06:57:57;;;;;;;89.73;53.53;;;5.90;99.90;;;;;;4980827;28;38361;-79
2022/03/22 07:00:27;;;;;;;93.23;55.53;;;6.00;99.90;;;;;;4978026;28;38309;-79
2022/03/22 07:02:54;;;;;;;85.57;52.87;;;6.20;99.90;;;;;;4981521;28;40014;-79
2022/03/22 07:05:20;;;;;;;89.17;54.57;;;6.30;99.90;;;;;;4957424;28;39996;-78
2022/03/22 07:07:46;;;;;;;92.93;53.97;;;6.50;99.90;;;;;;4964809;28;40911;-79
2022/03/22 07:10:15;;;;;;;79.70;49.97;;;6.60;99.90;;;;;;4980647;28;38161;-78
2022/03/22 07:12:56;;;;;;;84.17;52.80;;;6.70;99.90;;;;;;4978033;28;38787;-78
2022/03/22 07:15:28;;;;;;;86.27;51.83;;;6.90;99.90;;;;;;4982832;28;38346;-79
2022/03/22 07:17:55;;;;;;;79.18;49.25;;;6.90;99.90;;;;;;4978123;28;39171;-80
2022/03/22 07:20:22;;;;;;;79.23;51.70;;;7.10;99.90;;;;;;4978190;28;37609;-78
2022/03/22 07:22:48;;;;;;;84.77;49.83;;;7.20;99.90;;;;;;4984594;28;39377;-79
2022/03/22 07:25:14;;;;;;;73.93;48.70;;;7.30;99.90;;;;;;4970778;28;38917;-78
2022/03/22 07:27:41;;;;;;;69.70;47.03;;;7.50;99.90;;;;;;4979907;28;40395;-78
2022/03/22 07:30:10;;;;;;;70.23;47.97;;;7.60;99.90;;;;;;4966932;28;38555;-79
2022/03/22 07:32:38;;;;;;;67.27;44.53;;;7.70;99.90;;;;;;4979451;28;39373;-79
2022/03/22 07:35:09;;;;;;;74.70;47.43;;;7.70;99.90;;;;;;4966079;28;38693;-81
2022/03/22 07:37:36;;;;;;;61.80;40.20;;;7.80;99.90;;;;;;4979915;28;38341;-78
2022/03/22 07:40:04;;;;;;;62.40;39.87;;;8.00;99.90;;;;;;4959046;28;38810;-79
2022/03/22 07:42:30;;;;;;;59.47;38.10;;;8.20;99.90;;;;;;4966964;28;39407;-76
2022/03/22 07:44:58;;;;;;;56.67;37.07;;;8.40;99.90;;;;;;4966104;28;39477;-77
2022/03/22 07:47:25;;;;;;;52.03;36.37;;;8.70;99.90;;;;;;4979645;28;39645;-77
2022/03/22 07:55:21;;;;;;;44.20;30.73;;;9.20;99.90;;;;;;4981716;28;40493;-77
2022/03/22 07:57:47;;;;;;;47.17;31.37;;;9.50;99.90;;;;;;4970088;28;38382;-77
2022/03/22 08:00:14;;;;;;;47.70;29.83;;;9.60;99.90;;;;;;4985459;28;37266;-76
2022/03/22 08:02:54;;;;;;;42.47;29.13;;;9.80;99.90;;;;;;4983244;28;38928;-76
2022/03/22 08:05:21;;;;;;;38.97;25.83;;;9.90;99.90;;;;;;4978905;28;37557;-76
2022/03/22 08:07:47;;;;;;;35.80;25.70;;;10.00;99.90;;;;;;4984736;28;38591;-76
2022/03/22 08:10:14;;;;;;;39.10;24.77;;;10.20;99.90;;;;;;4996370;28;37939;-76
2022/03/22 08:12:41;;;;;;;34.23;24.57;;;10.40;99.90;;;;;;4983363;28;39628;-76
2022/03/22 08:15:09;;;;;;;33.83;23.40;;;10.60;99.90;;;;;;4978031;28;38578;-77
2022/03/22 08:17:37;;;;;;;33.53;22.80;;;10.80;99.90;;;;;;4978259;28;38790;-77
2022/03/22 08:20:04;;;;;;;33.83;23.10;;;10.90;99.90;;;;;;4979830;28;38645;-77
2022/03/22 08:22:32;;;;;;;32.83;22.48;;;11.10;99.90;;;;;;4986116;28;39591;-77
2022/03/22 08:24:59;;;;;;;33.40;22.67;;;11.30;99.90;;;;;;4990617;28;37538;-77
2022/03/22 08:27:25;;;;;;;32.33;22.15;;;11.40;99.90;;;;;;4986107;28;38382;-77
2022/03/22 08:29:51;;;;;;;32.25;21.60;;;11.50;99.90;;;;;;4989675;28;38744;-78
2022/03/22 08:32:18;;;;;;;31.48;20.92;;;11.60;99.90;;;;;;4990455;28;39483;-77
2022/03/22 08:34:44;;;;;;;29.75;20.15;;;11.80;99.90;;;;;;4984305;28;39019;-77
2022/03/22 08:37:12;;;;;;;25.83;19.38;;;11.90;99.90;;;;;;4970284;28;39397;-77
2022/03/22 08:39:38;;;;;;;27.55;18.98;;;12.00;99.90;;;;;;4953745;28;37208;-77
2022/03/22 08:42:05;;;;;;;31.90;18.67;;;12.10;99.90;;;;;;4967594;28;37611;-77
2022/03/22 08:44:31;;;;;;;32.05;19.60;;;12.30;99.90;;;;;;4981664;28;38544;-79
2022/03/22 08:46:59;;;;;;;27.20;19.27;;;12.40;99.90;;;;;;4991068;28;40326;-77
2022/03/22 08:49:25;;;;;;;29.08;18.33;;;12.50;99.90;;;;;;4979529;28;37496;-80
2022/03/22 08:51:51;;;;;;;31.20;18.98;;;12.50;99.90;;;;;;4964712;28;40760;-76
2022/03/22 08:54:17;;;;;;;28.10;19.27;;;12.70;99.90;;;;;;4983541;28;39765;-79
2022/03/22 08:56:44;;;;;;;27.23;19.35;;;12.80;99.90;;;;;;4977807;28;38461;-79
2022/03/22 08:59:10;;;;;;;30.70;19.20;;;12.90;99.90;;;;;;4961465;28;37435;-80
2022/03/22 09:01:36;;;;;;;26.63;19.70;;;12.90;99.90;;;;;;4968411;28;39191;-79
2022/03/22 09:06:47;;;;;;;30.08;19.73;;;13.10;99.90;;;;;;4968823;28;38832;-79
2022/03/22 09:09:13;;;;;;;31.27;18.52;;;13.20;99.90;;;;;;4959282;28;37512;-79
2022/03/22 09:11:39;;;;;;;29.65;19.13;;;13.40;99.90;;;;;;4969827;28;38729;-80
2022/03/22 09:14:05;;;;;;;33.17;19.15;;;13.50;99.90;;;;;;4963740;28;39377;-80
2022/03/22 09:16:32;;;;;;;28.05;18.23;;;13.60;99.90;;;;;;4968533;28;40080;-79
2022/03/22 09:18:58;;;;;;;30.52;18.40;;;13.70;99.90;;;;;;4980175;28;38308;-79
2022/03/22 09:21:26;;;;;;;25.23;18.33;;;13.80;99.90;;;;;;4979543;28;39918;-79
2022/03/22 09:23:54;;;;;;;29.38;19.23;;;13.90;99.90;;;;;;4969890;28;38437;-79
2022/03/22 09:26:20;;;;;;;29.67;18.05;;;14.10;99.90;;;;;;4967189;28;38219;-79
2022/03/22 09:28:46;;;;;;;27.50;18.45;;;14.10;99.90;;;;;;4975394;28;38170;-80
2022/03/22 09:31:12;;;;;;;25.33;18.35;;;14.20;99.90;;;;;;4968758;28;38588;-79
2022/03/22 09:33:38;;;;;;;30.10;18.60;;;14.30;99.90;;;;;;4966937;28;38159;-77
2022/03/22 09:36:04;;;;;;;27.55;17.65;;;14.40;99.90;;;;;;4969569;28;39121;-79
2022/03/22 09:38:31;;;;;;;26.92;18.13;;;14.50;99.90;;;;;;4984541;28;37789;-79
2022/03/22 09:40:58;;;;;;;22.85;16.23;;;14.70;99.90;;;;;;4966609;28;37812;-77
2022/03/22 09:43:25;;;;;;;23.77;17.08;;;14.80;99.90;;;;;;4968483;28;38645;-77
2022/03/22 09:45:52;;;;;;;25.55;17.38;;;15.00;99.90;;;;;;4967351;28;38074;-77
2022/03/22 09:48:19;;;;;;;27.00;17.80;;;15.10;99.90;;;;;;4977916;28;37611;-77
2022/03/22 09:53:30;;;;;;;27.20;17.33;;;15.10;99.90;;;;;;4966367;28;49172;-78
2022/03/22 09:55:56;;;;;;;26.23;17.85;;;15.30;99.90;;;;;;4970810;28;39374;-77
2022/03/22 09:58:22;;;;;;;23.90;17.45;;;15.30;99.90;;;;;;4970351;28;38340;-77
2022/03/22 10:00:49;;;;;;;29.63;17.17;;;15.50;99.90;;;;;;4979635;28;38497;-77
2022/03/22 10:03:19;;;;;;;26.77;17.40;;;15.60;99.90;;;;;;4986255;28;37959;-78
2022/03/22 10:05:59;;;;;;;24.67;16.60;;;15.70;99.90;;;;;;4984293;28;37897;-77
2022/03/22 10:08:26;;;;;;;21.17;16.75;;;15.80;99.90;;;;;;4980178;28;38619;-78
2022/03/22 10:10:58;;;;;;;22.15;15.50;;;16.00;99.90;;;;;;4986495;28;37407;-78
2022/03/22 10:13:25;;;;;;;26.10;16.63;;;16.10;99.90;;;;;;4987242;28;38282;-78
2022/03/22 10:16:01;;;;;;;22.25;15.68;;;16.10;99.90;;;;;;4984139;28;38139;-78
2022/03/22 10:18:28;;;;;;;29.55;17.15;;;16.30;99.90;;;;;;4984902;28;49510;-78
2022/03/22 10:21:02;;;;;;;29.38;16.98;;;16.40;99.90;;;;;;4983989;28;37629;-83
2022/03/22 10:23:30;;;;;;;23.02;16.33;;;16.60;99.90;;;;;;4982536;28;48411;-85
2022/03/22 10:26:07;;;;;;;25.90;16.55;;;16.60;99.90;;;;;;4983133;28;39187;-85
2022/03/22 10:28:34;;;;;;;22.48;16.98;;;16.60;99.90;;;;;;4965254;28;47224;-83
2022/03/22 10:31:02;;;;;;;29.52;18.08;;;16.50;99.90;;;;;;4969122;28;39425;-84
2022/03/22 10:33:28;;;;;;;24.02;16.38;;;16.40;99.90;;;;;;4983816;28;47480;-84
2022/03/22 10:35:54;;;;;;;24.50;16.70;;;16.70;99.90;;;;;;4968234;28;37981;-84
2022/03/22 10:38:20;;;;;;;27.05;18.40;;;16.70;99.90;;;;;;4971639;28;37938;-83
2022/03/22 10:40:48;;;;;;;24.30;17.13;;;16.50;99.90;;;;;;4978130;28;38297;-84
2022/03/22 10:43:22;;;;;;;26.33;18.35;;;16.60;99.90;;;;;;4984565;28;38751;-85
2022/03/22 10:46:01;;;;;;;31.63;18.50;;;16.70;99.90;;;;;;4983528;28;38147;-84
2022/03/22 10:48:32;;;;;;;26.65;17.73;;;16.70;99.90;;;;;;4984616;28;47086;-84
2022/03/22 10:50:59;;;;;;;29.02;18.17;;;16.90;99.90;;;;;;4983288;28;39628;-84
2022/03/22 10:53:28;;;;;;;26.70;17.17;;;16.90;99.90;;;;;;4985377;28;38599;-85
2022/03/22 10:56:05;;;;;;;27.13;18.23;;;17.10;99.90;;;;;;4987553;28;38097;-84
2022/03/22 10:58:31;;;;;;;27.42;17.02;;;17.40;99.90;;;;;;4950529;28;47027;-84
2022/03/22 11:01:00;;;;;;;23.75;18.52;;;17.80;99.90;;;;;;4943876;28;35454;-84
2022/03/22 11:03:30;;;;;;;24.30;17.77;;;18.10;99.90;;;;;;4949075;28;41847;-83
2022/03/22 11:06:02;;;;;;;26.38;17.65;;;18.30;99.90;;;;;;4947125;28;37663;-83
2022/03/22 11:08:28;;;;;;;24.75;17.83;;;18.40;99.90;;;;;;4949583;28;48302;-84
2022/03/22 11:10:54;;;;;;;26.50;17.27;;;18.80;99.90;;;;;;4948930;28;39387;-84
2022/03/22 11:13:24;;;;;;;26.25;18.40;;;19.00;99.90;;;;;;4936436;28;37463;-83
2022/03/22 11:15:51;;;;;;;29.05;18.05;;;18.80;99.90;;;;;;4938845;28;39009;-84
2022/03/22 11:18:19;;;;;;;28.08;18.33;;;18.50;99.90;;;;;;4952113;28;37365;-84
2022/03/22 11:20:50;;;;;;;27.55;18.42;;;18.30;99.90;;;;;;4947271;28;39570;-85
2022/03/22 11:23:19;;;;;;;27.25;17.42;;;18.40;99.90;;;;;;4949652;28;39121;-83
2022/03/22 11:25:45;;;;;;;27.02;18.15;;;18.60;99.90;;;;;;4944351;28;38097;-84
2022/03/22 11:28:16;;;;;;;27.50;18.02;;;19.00;99.90;;;;;;4943991;28;37631;-84
2022/03/22 11:30:42;;;;;;;27.15;18.55;;;19.30;99.90;;;;;;4929787;28;39134;-83
2022/03/22 11:36:00;;;;;;;27.00;17.23;;;19.90;99.90;;;;;;4965016;28;39747;-83
2022/03/22 11:38:42;;;;;;;26.92;16.67;;;20.20;99.90;;;;;;4984802;28;38173;-83
2022/03/22 11:44:11;;;;;;;27.05;16.65;;;20.40;99.90;;;;;;4984618;28;39864;-83
2022/03/22 11:46:37;;;;;;;20.90;15.32;;;20.20;99.90;;;;;;4985529;28;39117;-83
2022/03/22 11:49:14;;;;;;;22.67;15.35;;;20.50;99.90;;;;;;4966969;28;38617;-82
2022/03/22 11:51:48;;;;;;;26.35;16.65;;;20.60;99.90;;;;;;4982960;28;38812;-83
2022/03/22 11:54:14;;;;;;;22.40;15.52;;;20.80;99.90;;;;;;4980526;28;38540;-83
2022/03/22 11:56:51;;;;;;;26.20;16.40;;;20.80;99.90;;;;;;4984793;28;38873;-81
2022/03/22 11:59:19;;;;;;;23.08;14.05;;;21.00;99.90;;;;;;4985808;28;37735;-81
2022/03/22 12:01:58;;;;;;;23.85;14.68;;;21.20;99.90;;;;;;4984103;28;40306;-82
2022/03/22 12:04:37;;;;;;;22.75;14.95;;;21.30;99.90;;;;;;4979587;28;38713;-82
2022/03/22 12:07:05;;;;;;;26.92;15.43;;;21.30;99.90;;;;;;4962563;28;38827;-81
2022/03/22 12:09:31;;;;;;;19.02;14.27;;;21.50;99.90;;;;;;4981908;28;37729;-80
2022/03/22 12:12:00;;;;;;;20.48;12.45;;;21.30;99.90;;;;;;4968074;28;38912;-80
2022/03/22 12:14:31;;;;;;;16.58;10.43;;;20.90;99.90;;;;;;4979841;28;38396;-81
2022/03/22 12:16:57;;;;;;;14.95;10.20;;;21.00;99.90;;;;;;4983642;28;38606;-82
2022/03/22 12:19:25;;;;;;;16.52;10.63;;;20.30;99.90;;;;;;4975878;28;38266;-81
2022/03/22 12:21:54;;;;;;;13.40;9.88;;;20.60;99.90;;;;;;4983460;28;41009;-82
2022/03/22 12:24:22;;;;;;;21.17;11.45;;;21.10;99.90;;;;;;4984126;28;38140;-82
2022/03/22 12:26:50;;;;;;;13.98;10.18;;;21.20;99.90;;;;;;4959923;28;38902;-81
2022/03/22 12:29:16;;;;;;;17.42;9.10;;;21.10;99.90;;;;;;4950740;28;39549;-81
2022/03/22 12:31:50;;;;;;;16.85;9.00;;;21.30;99.90;;;;;;4982322;28;40544;-82
2022/03/22 12:34:17;;;;;;;16.45;10.85;;;21.40;99.90;;;;;;4964433;28;39902;-80
2022/03/22 12:36:43;;;;;;;15.38;11.75;;;21.30;99.90;;;;;;4983622;28;37832;-81
2022/03/22 12:39:09;;;;;;;14.73;10.20;;;21.50;99.90;;;;;;4982840;28;37807;-81
2022/03/22 12:41:36;;;;;;;17.88;10.18;;;21.10;99.90;;;;;;4983350;28;39591;-81
2022/03/22 12:44:04;;;;;;;15.40;8.60;;;20.60;99.90;;;;;;4978574;28;38638;-81
2022/03/22 12:46:32;;;;;;;15.35;10.68;;;20.80;99.90;;;;;;4985190;28;37959;-80
2022/03/22 12:48:58;;;;;;;16.80;9.25;;;21.30;99.90;;;;;;4987618;28;38136;-80
2022/03/22 12:51:25;;;;;;;12.80;9.48;;;21.30;99.40;;;;;;4985671;28;40588;-81
2022/03/22 12:53:52;;;;;;;14.73;9.60;;;21.00;99.30;;;;;;4986547;28;38740;-82
2022/03/22 12:56:21;;;;;;;15.98;9.65;;;20.80;98.90;;;;;;4985870;28;39369;-82
2022/03/22 12:58:49;;;;;;;17.23;10.00;;;20.50;99.30;;;;;;4986065;28;20043;-79
2022/03/22 13:01:16;;;;;;;13.18;9.55;;;20.50;99.10;;;;;;4984076;28;38733;-78
2022/03/22 13:03:46;;;;;;;13.13;9.15;;;21.00;99.50;;;;;;4985042;28;35921;-79
2022/03/22 13:06:13;;;;;;;16.25;9.93;;;21.50;97.80;;;;;;4984582;28;38811;-78
2022/03/22 13:11:27;;;;;;;16.48;10.75;;;21.50;98.30;;;;;;4987018;28;39390;-78
2022/03/22 13:16:42;;;;;;;15.85;10.38;;;22.20;97.20;;;;;;4982688;28;49472;-78